Time;durP1;ratioP1;P1;durP2;ratioP2;P2;SDS_P1;SDS_P2;PMS_P1;PMS_P2;Temp;Humidity;BMP_temperature;BMP_pressure;BME280_temperature;BME280_humidity;BME280_pressure;Samples;Min_cycle;Max_cycle;Signal;HPM_P1;HPM_P2
2020/12/27 00:01:54;;;;;;;1.27;0.73;;;;;;;1.71;58.69;100491.75;4401344;32;32557;-94
2020/12/27 00:04:37;;;;;;;2.87;2.10;;;;;;;1.61;59.00;100487.03;4375208;32;33666;-96
2020/12/27 00:07:14;;;;;;;2.53;1.85;;;;;;;1.66;58.91;100475.41;4363365;32;33863;-96
2020/12/27 00:09:45;;;;;;;1.00;1.00;;;;;;;1.51;59.09;100470.84;4347598;32;34079;-91
2020/12/27 00:12:14;;;;;;;1.50;1.40;;;;;;;1.49;59.24;100471.88;4347434;32;32854;-96
2020/12/27 00:14:42;;;;;;;2.30;2.10;;;;;;;1.51;58.84;100476.09;4346531;32;32666;-93
2020/12/27 00:17:12;;;;;;;2.03;1.92;;;;;;;1.47;59.04;100476.31;4361347;32;34976;-93
2020/12/27 00:19:41;;;;;;;1.30;1.20;;;;;;;1.35;59.41;100469.91;4366112;32;33680;-95
2020/12/27 00:22:09;;;;;;;2.37;1.15;;;;;;;1.30;59.27;100465.75;4342171;32;32336;-88
2020/12/27 00:24:37;;;;;;;2.05;1.85;;;;;;;1.43;59.01;100464.28;4346744;32;32348;-95
2020/12/27 00:27:19;;;;;;;3.70;1.73;;;;;;;0.99;60.99;100463.69;4335282;32;35931;-96
2020/12/27 00:30:02;;;;;;;0.52;0.52;;;;;;;1.15;60.39;100458.63;4356450;32;34312;-94
2020/12/27 00:32:34;;;;;;;3.53;0.50;;;;;;;1.15;60.09;100463.84;4364401;32;32772;-95
2020/12/27 00:35:02;;;;;;;1.90;0.85;;;;;;;1.10;60.07;100453.59;4345582;32;32852;-95
2020/12/27 00:37:31;;;;;;;3.55;2.50;;;;;;;1.23;59.39;100459.12;4352076;32;34756;-91
2020/12/27 00:39:59;;;;;;;1.65;1.33;;;;;;;1.30;59.17;100452.66;4333080;32;36110;-95
2020/12/27 00:42:27;;;;;;;;;;;;;;;1.23;59.01;100449.47;4343461;32;33610;-95
2020/12/27 00:44:56;;;;;;;1.27;1.25;;;;;;;1.40;58.30;100441.69;4378847;32;32695;-95
2020/12/27 00:47:23;;;;;;;0.98;0.77;;;;;;;1.14;58.91;100442.03;4345758;32;33888;-94
2020/12/27 00:49:53;;;;;;;0.57;0.57;;;;;;;1.13;59.01;100442.94;4334564;32;34200;-96
2020/12/27 00:52:21;;;;;;;2.40;1.80;;;;;;;1.13;58.95;100440.34;4344223;32;34524;-95
2020/12/27 00:54:50;;;;;;;0.37;0.35;;;;;;;1.17;58.49;100441.03;4341443;32;33641;-91
2020/12/27 00:57:18;;;;;;;0.90;0.62;;;;;;;1.24;58.46;100434.59;4348711;32;34721;-95
2020/12/27 00:59:45;;;;;;;0.82;0.82;;;;;;;1.14;59.07;100425.47;4361068;32;34496;-89
2020/12/27 01:02:14;;;;;;;1.33;1.10;;;;;;;0.91;59.78;100417.78;4358412;32;34691;-90
2020/12/27 01:04:44;;;;;;;1.75;1.65;;;;;;;1.00;58.93;100417.38;4358047;32;33324;-93
2020/12/27 01:07:16;;;;;;;6.70;1.98;;;;;;;0.99;59.18;100419.16;4364228;32;34968;-89
2020/12/27 01:09:44;;;;;;;1.25;1.25;;;;;;;1.00;58.95;100420.88;4345887;32;34520;-94
2020/12/27 01:12:16;;;;;;;3.25;3.05;;;;;;;0.72;59.87;100430.00;4346656;32;32549;-95
2020/12/27 01:14:43;;;;;;;3.50;1.45;;;;;;;0.92;59.42;100435.22;4325913;32;32800;-94
2020/12/27 01:17:16;;;;;;;1.42;1.08;;;;;;;1.00;59.09;100430.47;4330820;33;34626;-93
2020/12/27 01:19:45;;;;;;;0.70;0.70;;;;;;;0.67;60.31;100435.44;4342197;33;34685;-95
2020/12/27 01:22:13;;;;;;;1.10;0.60;;;;;;;0.77;60.30;100426.28;4341710;33;32763;-92
2020/12/27 01:24:42;;;;;;;1.40;1.30;;;;;;;0.42;61.39;100426.13;4344028;33;33382;-95
2020/12/27 01:27:10;;;;;;;1.42;1.33;;;;;;;0.58;60.63;100424.56;4356270;32;34750;-93
2020/12/27 01:29:42;;;;;;;1.45;1.35;;;;;;;0.61;60.29;100425.28;4357128;32;34334;-95
2020/12/27 01:32:12;;;;;;;0.73;0.57;;;;;;;0.48;60.69;100402.31;4359681;32;32440;-95
2020/12/27 01:34:40;;;;;;;1.62;0.60;;;;;;;0.55;60.27;100407.22;4352640;32;33801;-95
2020/12/27 01:37:10;;;;;;;1.23;1.17;;;;;;;0.60;60.07;100401.75;4344641;32;35314;-91
2020/12/27 01:39:42;;;;;;;2.47;2.30;;;;;;;0.40;60.52;100407.03;4343953;33;34453;-93
2020/12/27 01:42:10;;;;;;;3.30;1.00;;;;;;;0.63;60.25;100404.25;4344024;32;33370;-95
2020/12/27 01:44:41;;;;;;;0.95;0.95;;;;;;;0.58;59.88;100406.22;4356305;32;32465;-94
2020/12/27 01:47:22;;;;;;;1.85;0.98;;;;;;;0.95;58.37;100395.81;4344803;32;34486;-90
2020/12/27 01:49:57;;;;;;;0.55;0.55;;;;;;;0.40;60.38;100401.78;4354949;32;33354;-92
2020/12/27 01:52:25;;;;;;;0.80;0.80;;;;;;;0.15;61.43;100395.91;4355813;32;33355;-93
2020/12/27 01:54:55;;;;;;;0.30;0.30;;;;;;;0.24;61.17;100400.75;4350604;32;34142;-90
2020/12/27 01:58:01;;;;;;;0.50;0.50;;;;;;;0.17;61.46;100392.31;4359275;32;34563;-92
2020/12/27 02:00:30;;;;;;;0.60;0.60;;;;;;;-0.01;62.73;100390.47;4358278;32;33013;-91
2020/12/27 02:02:59;;;;;;;0.77;0.77;;;;;;;0.18;61.65;100390.53;4355732;32;32800;-94
2020/12/27 02:05:27;;;;;;;3.67;0.98;;;;;;;0.30;60.77;100385.63;4319117;33;34587;-93
2020/12/27 02:07:56;;;;;;;1.65;1.55;;;;;;;0.36;60.13;100395.84;4343312;33;34750;-93
2020/12/27 02:10:24;;;;;;;1.75;1.65;;;;;;;0.34;59.84;100384.59;4346726;32;34440;-92
2020/12/27 02:12:52;;;;;;;1.35;1.35;;;;;;;0.14;60.66;100381.12;4358094;32;33515;-92
2020/12/27 02:15:19;;;;;;;1.62;1.12;;;;;;;0.22;60.62;100379.03;4358632;32;33806;-90
2020/12/27 02:17:50;;;;;;;0.57;0.57;;;;;;;0.18;60.97;100380.06;4357961;32;33351;-90
2020/12/27 02:20:19;;;;;;;1.67;1.58;;;;;;;0.19;60.75;100374.78;4356496;32;34404;-93
2020/12/27 02:22:48;;;;;;;0.73;0.73;;;;;;;0.24;60.02;100370.22;4345751;32;31915;-93
2020/12/27 02:25:19;;;;;;;1.20;1.20;;;;;;;0.27;59.77;100363.97;4357746;32;33286;-93
2020/12/27 02:27:48;;;;;;;2.95;1.98;;;;;;;0.24;59.66;100364.97;4359003;32;33754;-91
2020/12/27 02:30:16;;;;;;;1.95;1.85;;;;;;;0.21;59.50;100353.78;4340033;32;34202;-91
2020/12/27 02:32:43;;;;;;;0.90;0.90;;;;;;;0.09;59.51;100352.56;4357998;32;32881;-92
2020/12/27 02:35:11;;;;;;;1.62;1.58;;;;;;;0.06;59.67;100357.94;4345302;32;33220;-92
2020/12/27 02:37:39;;;;;;;0.90;0.90;;;;;;;0.11;59.47;100357.72;4356918;32;35795;-92
2020/12/27 02:40:07;;;;;;;1.02;1.02;;;;;;;-0.05;59.94;100361.91;4358099;32;34527;-92
2020/12/27 02:42:37;;;;;;;2.80;1.73;;;;;;;-0.04;59.77;100365.38;4358873;32;34900;-94
2020/12/27 02:45:10;;;;;;;0.32;0.22;;;;;;;-0.57;62.70;100364.94;4359999;32;34340;-91
2020/12/27 02:47:40;;;;;;;1.52;1.42;;;;;;;-0.20;61.01;100352.06;4371709;32;34001;-91
2020/12/27 02:50:12;;;;;;;2.78;2.62;;;;;;;-0.19;60.78;100350.31;4361126;32;34396;-89
2020/12/27 02:52:40;;;;;;;1.55;1.45;;;;;;;0.00;60.05;100352.09;4345227;32;32593;-91
2020/12/27 02:55:08;;;;;;;0.73;0.73;;;;;;;-0.09;60.16;100344.66;4346377;32;33604;-92
2020/12/27 02:57:37;;;;;;;3.80;1.02;;;;;;;-0.04;59.69;100336.63;4345477;32;36467;-92
2020/12/27 03:00:05;;;;;;;1.20;1.20;;;;;;;-0.01;59.60;100339.91;4357661;32;34483;-92
2020/12/27 03:02:34;;;;;;;0.57;0.57;;;;;;;-0.08;59.41;100331.50;4384363;32;34730;-93
2020/12/27 03:05:02;;;;;;;0.70;0.70;;;;;;;-0.22;60.00;100334.78;4372211;32;32671;-93
2020/12/27 03:07:30;;;;;;;1.08;1.05;;;;;;;-0.15;59.69;100333.59;4359655;32;34708;-92
2020/12/27 03:09:58;;;;;;;;;;;;;;;-0.09;59.50;100331.59;4373904;32;34301;-92
2020/12/27 03:12:25;;;;;;;0.80;0.80;;;;;;;-0.20;59.85;100332.94;4359333;32;33020;-92
2020/12/27 03:14:53;;;;;;;0.68;0.30;;;;;;;-0.21;59.38;100326.84;4358762;32;34628;-86
2020/12/27 03:17:23;;;;;;;0.73;0.73;;;;;;;-0.31;59.48;100324.72;4347086;32;33744;-92
2020/12/27 03:19:50;;;;;;;4.55;1.00;;;;;;;-0.33;59.59;100323.91;4364780;32;34404;-92
2020/12/27 03:22:19;;;;;;;0.93;0.90;;;;;;;-0.39;59.47;100313.72;4345108;32;33181;-90
2020/12/27 03:24:46;;;;;;;2.70;0.77;;;;;;;-0.26;59.17;100315.75;4344934;32;33310;-91
2020/12/27 03:27:14;;;;;;;0.32;0.32;;;;;;;-0.39;59.49;100308.50;4356536;32;33820;-91
2020/12/27 03:29:42;;;;;;;0.73;0.73;;;;;;;-0.37;59.49;100315.34;4359056;32;34130;-90
2020/12/27 03:32:11;;;;;;;0.77;0.77;;;;;;;-0.56;59.95;100319.63;4344774;32;32598;-91
2020/12/27 03:34:39;;;;;;;2.42;2.20;;;;;;;-0.49;59.86;100315.00;4357177;32;33819;-90
2020/12/27 03:37:07;;;;;;;1.40;1.30;;;;;;;-0.36;59.03;100311.81;4344752;32;34800;-91
2020/12/27 03:39:37;;;;;;;1.45;0.93;;;;;;;-0.39;59.01;100301.47;4344509;32;33278;-92
2020/12/27 03:42:05;;;;;;;0.88;0.88;;;;;;;-0.45;59.20;100308.72;4358049;32;32004;-89
2020/12/27 03:44:33;;;;;;;0.10;0.10;;;;;;;-0.45;59.22;100313.97;4369096;32;34143;-90
2020/12/27 03:47:02;;;;;;;1.52;1.42;;;;;;;-0.41;59.12;100302.47;4357194;32;34602;-91
2020/12/27 03:49:31;;;;;;;0.32;0.32;;;;;;;-0.50;59.45;100303.69;4344942;32;33517;-90
2020/12/27 03:51:59;;;;;;;0.80;0.45;;;;;;;-0.59;59.57;100300.63;4358176;32;33276;-91
2020/12/27 03:54:32;;;;;;;0.68;0.68;;;;;;;-0.58;59.49;100291.87;4373160;32;33345;-92
2020/12/27 03:57:00;;;;;;;;;;;;;;;-0.56;59.30;100293.50;4372179;32;35613;-90
2020/12/27 03:59:28;;;;;;;1.50;1.40;;;;;;;-0.59;59.42;100287.56;4347095;32;33612;-92
2020/12/27 04:01:56;;;;;;;0.95;0.95;;;;;;;-0.62;59.65;100285.06;4357210;32;34120;-90
2020/12/27 04:04:23;;;;;;;1.00;1.00;;;;;;;-0.60;59.48;100278.03;4359203;32;33508;-91
2020/12/27 04:07:08;;;;;;;0.85;0.85;;;;;;;-0.74;60.27;100265.53;4346899;32;33933;-91
2020/12/27 04:09:37;;;;;;;0.65;0.65;;;;;;;-0.75;60.30;100262.97;4359148;32;35595;-90
2020/12/27 04:12:04;;;;;;;0.98;0.98;;;;;;;-0.62;59.74;100266.78;4372615;32;32837;-90
2020/12/27 04:14:33;;;;;;;0.47;0.47;;;;;;;-0.73;60.01;100262.00;4372434;32;34117;-89
2020/12/27 04:17:01;;;;;;;0.70;0.70;;;;;;;-0.79;60.38;100257.03;4372464;32;35198;-87
2020/12/27 04:19:28;;;;;;;4.03;3.72;;;;;;;-0.75;60.06;100257.75;4373126;32;34196;-91
2020/12/27 04:21:56;;;;;;;2.08;1.65;;;;;;;-0.97;61.31;100263.00;4358692;32;32761;-91
2020/12/27 04:24:23;;;;;;;2.65;2.45;;;;;;;-0.91;60.96;100252.31;4359028;32;33230;-91
2020/12/27 04:26:51;;;;;;;1.17;1.05;;;;;;;-0.88;60.63;100248.69;4370916;32;35876;-87
2020/12/27 04:29:19;;;;;;;0.40;0.40;;;;;;;-0.80;59.99;100236.19;4371241;32;33859;-92
2020/12/27 04:31:53;;;;;;;1.60;1.50;;;;;;;-1.01;60.68;100234.47;4359738;32;32458;-90
2020/12/27 04:34:21;;;;;;;0.73;0.73;;;;;;;-1.02;60.72;100241.47;4359267;32;33587;-89
2020/12/27 04:36:48;;;;;;;0.93;0.90;;;;;;;-1.38;62.45;100234.22;4358786;32;34398;-90
2020/12/27 04:39:16;;;;;;;0.73;0.73;;;;;;;-1.28;62.25;100238.16;4372433;32;33884;-90
2020/12/27 04:41:43;;;;;;;2.85;2.65;;;;;;;-1.32;62.72;100247.03;4346411;32;33013;-88
2020/12/27 04:44:13;;;;;;;0.25;0.25;;;;;;;-1.41;61.96;100247.41;4358832;32;33513;-91
2020/12/27 04:46:41;;;;;;;1.17;1.08;;;;;;;-1.20;61.61;100233.50;4358527;32;35360;-90
2020/12/27 04:49:11;;;;;;;1.23;0.93;;;;;;;-1.31;61.97;100227.84;4358557;32;34973;-90
2020/12/27 04:51:39;;;;;;;0.75;0.75;;;;;;;-1.33;62.08;100227.06;4347022;32;33198;-92
2020/12/27 04:54:13;;;;;;;0.85;0.85;;;;;;;-1.26;61.55;100224.16;4359304;32;34888;-88
2020/12/27 04:56:44;;;;;;;0.30;0.30;;;;;;;-1.19;61.14;100222.12;4359058;32;35321;-90
2020/12/27 04:59:12;;;;;;;1.12;1.12;;;;;;;-1.21;61.30;100221.34;4357440;32;33946;-90
2020/12/27 05:01:40;;;;;;;1.27;1.17;;;;;;;-1.16;61.10;100212.44;4358408;32;33409;-89
2020/12/27 05:04:10;;;;;;;0.80;0.47;;;;;;;-1.19;61.37;100211.69;4359070;32;33892;-91
2020/12/27 05:06:38;;;;;;;0.47;0.47;;;;;;;-1.12;60.62;100214.00;4358448;32;33768;-91
2020/12/27 05:09:06;;;;;;;2.35;2.15;;;;;;;-1.36;61.38;100219.34;4370386;32;34510;-90
2020/12/27 05:11:34;;;;;;;0.45;0.45;;;;;;;-1.06;60.53;100216.37;4372041;32;32411;-91
2020/12/27 05:14:03;;;;;;;0.85;0.85;;;;;;;-1.32;61.62;100218.34;4371913;32;34127;-87
2020/12/27 05:16:31;;;;;;;3.12;1.62;;;;;;;-1.26;61.45;100221.53;4346519;32;35434;-84
2020/12/27 05:18:59;;;;;;;0.93;0.93;;;;;;;-1.65;62.56;100215.28;4370904;32;33434;-88
2020/12/27 05:21:27;;;;;;;0.47;0.45;;;;;;;-1.68;63.38;100215.38;4358528;32;32311;-87
2020/12/27 05:24:00;;;;;;;1.73;1.62;;;;;;;-1.63;62.90;100209.97;4371136;32;33970;-91
2020/12/27 05:26:29;;;;;;;0.32;0.32;;;;;;;-1.58;63.01;100202.84;4365932;32;33746;-88
2020/12/27 05:28:57;;;;;;;1.60;1.52;;;;;;;-1.46;62.93;100199.75;4355123;32;34174;-90
2020/12/27 05:31:34;;;;;;;0.93;0.93;;;;;;;-1.55;62.93;100194.88;4377557;32;31787;-90
2020/12/27 05:34:18;;;;;;;4.12;1.98;;;;;;;-1.47;62.31;100196.31;4360245;32;34134;-91
2020/12/27 05:37:07;;;;;;;0.68;0.68;;;;;;;-1.69;63.07;100192.81;4354082;32;35599;-89
2020/12/27 05:39:36;;;;;;;0.93;0.62;;;;;;;-1.26;61.46;100178.91;4355841;32;33222;-91
2020/12/27 05:42:06;;;;;;;2.40;2.17;;;;;;;-1.61;62.85;100166.44;4355942;32;31746;-91
2020/12/27 05:44:35;;;;;;;1.60;0.93;;;;;;;-1.44;61.71;100161.38;4355684;32;32370;-90
2020/12/27 05:47:03;;;;;;;2.83;2.10;;;;;;;-1.27;61.25;100144.16;4367992;32;36008;-91
2020/12/27 05:49:31;;;;;;;0.45;0.45;;;;;;;-1.54;61.13;100142.66;4354852;32;34136;-91
2020/12/27 05:51:59;;;;;;;;;;;;;;;-1.35;60.96;100140.16;4343359;32;32749;-88
2020/12/27 05:54:33;;;;;;;1.83;1.73;;;;;;;-1.40;61.15;100140.34;4367578;32;33330;-88
2020/12/27 05:57:03;;;;;;;1.52;1.52;;;;;;;-1.58;62.57;100125.44;4342651;32;33968;-92
2020/12/27 05:59:33;;;;;;;1.05;1.00;;;;;;;-1.34;61.08;100123.59;4330721;32;35077;-91
2020/12/27 06:02:01;;;;;;;1.30;1.10;;;;;;;-1.18;60.93;100119.44;4342508;32;33020;-90
2020/12/27 06:05:00;;;;;;;2.00;1.85;;;;;;;-1.46;62.35;100109.28;4342841;32;33015;-90
2020/12/27 06:07:33;;;;;;;3.50;2.12;;;;;;;-1.61;63.04;100102.06;4342526;32;36447;-90
2020/12/27 06:10:06;;;;;;;0.28;0.28;;;;;;;-1.29;62.01;100105.97;4367129;32;33438;-90
2020/12/27 06:12:51;;;;;;;2.12;2.03;;;;;;;-1.46;62.91;100092.78;4369372;32;33157;-90
2020/12/27 06:15:27;;;;;;;1.52;1.42;;;;;;;-1.51;62.73;100098.19;4370010;32;33463;-89
2020/12/27 06:18:13;;;;;;;0.68;0.68;;;;;;;-1.50;62.52;100099.03;4346140;32;35875;-87
2020/12/27 06:20:43;;;;;;;2.67;2.35;;;;;;;-1.23;61.39;100108.34;4344965;32;34630;-90
2020/12/27 06:23:11;;;;;;;1.77;1.67;;;;;;;-1.16;61.01;100110.63;4345287;32;34788;-91
2020/12/27 06:25:39;;;;;;;0.52;0.52;;;;;;;-1.34;62.10;100103.56;4356621;32;34221;-90
2020/12/27 06:28:07;;;;;;;2.58;2.37;;;;;;;-1.44;62.44;100093.56;4332467;32;35394;-88
2020/12/27 06:30:40;;;;;;;2.28;2.17;;;;;;;-1.47;62.33;100088.47;4345445;32;34287;-90
2020/12/27 06:33:16;;;;;;;1.45;1.45;;;;;;;-2.00;63.85;100085.41;4345011;32;32821;-89
2020/12/27 06:35:45;;;;;;;1.65;1.58;;;;;;;-1.68;64.07;100081.53;4344329;32;32165;-90
2020/12/27 06:38:16;;;;;;;2.10;1.65;;;;;;;-1.42;62.86;100091.75;4356871;32;34441;-90
2020/12/27 06:40:46;;;;;;;2.60;2.40;;;;;;;-1.33;61.97;100086.16;4344932;32;34225;-88
2020/12/27 06:43:16;;;;;;;2.28;1.83;;;;;;;-1.64;63.88;100075.25;4344044;32;31804;-90
2020/12/27 06:45:44;;;;;;;1.62;1.52;;;;;;;-1.39;62.72;100070.75;4358149;32;33657;-88
2020/12/27 06:48:30;;;;;;;0.65;0.65;;;;;;;-1.22;61.59;100057.84;4357145;32;33575;-90
2020/12/27 06:50:59;;;;;;;0.35;0.35;;;;;;;-1.21;60.90;100064.75;4369321;32;34751;-90
2020/12/27 06:53:44;;;;;;;3.50;2.42;;;;;;;-1.45;62.33;100077.06;4357523;32;33081;-90
2020/12/27 06:56:14;;;;;;;1.60;1.52;;;;;;;-1.07;61.37;100070.22;4345480;32;33281;-88
2020/12/27 06:59:00;;;;;;;3.58;1.75;;;;;;;-1.38;62.92;100075.06;4345527;32;35220;-90
2020/12/27 07:01:28;;;;;;;2.58;2.47;;;;;;;-1.13;62.25;100081.78;4357197;32;33062;-91
2020/12/27 07:04:15;;;;;;;2.15;1.30;;;;;;;-1.10;62.41;100080.81;4356987;32;32824;-91
2020/12/27 07:06:47;;;;;;;2.58;2.37;;;;;;;-1.05;61.92;100082.31;4357087;32;33415;-90
2020/12/27 07:09:22;;;;;;;2.03;1.92;;;;;;;-1.26;62.72;100072.78;4332426;32;33496;-91
2020/12/27 07:12:07;;;;;;;1.15;1.15;;;;;;;-0.99;62.02;100078.56;4344331;32;33806;-91
2020/12/27 07:14:41;;;;;;;3.20;3.00;;;;;;;-1.03;62.52;100092.69;4344553;32;32294;-91
2020/12/27 07:17:11;;;;;;;4.00;3.75;;;;;;;-1.04;62.59;100099.66;4345473;32;33222;-91
2020/12/27 07:19:40;;;;;;;5.45;1.60;;;;;;;-0.94;62.34;100097.53;4344656;32;35308;-88
2020/12/27 07:22:11;;;;;;;3.42;1.80;;;;;;;-0.84;61.90;100091.81;4357588;32;34068;-91
2020/12/27 07:24:40;;;;;;;4.05;3.72;;;;;;;-0.88;62.46;100089.41;4343712;32;33738;-93
2020/12/27 07:30:20;;;;;;;4.35;4.15;;;;;;;-0.54;62.58;100102.69;4411553;32;20136;-90
2020/12/27 07:33:09;;;;;;;2.75;2.37;;;;;;;-0.74;63.84;100107.94;4393859;32;33713;-90
2020/12/27 07:36:11;;;;;;;2.85;1.85;;;;;;;-0.59;62.98;100105.50;4392588;32;33417;-92
2020/12/27 07:39:57;;;;;;;0.90;0.90;;;;;;;-0.42;62.07;100103.00;4401129;32;33006;-90
2020/12/27 07:42:34;;;;;;;4.32;4.00;;;;;;;-0.38;62.91;100103.72;4393470;32;34616;-91
2020/12/27 07:45:43;;;;;;;7.25;1.08;;;;;;;-0.23;62.34;100095.16;4388144;32;33063;-91
2020/12/27 07:48:56;;;;;;;2.90;2.60;;;;;;;-0.24;62.82;100102.16;4402003;32;31814;-90
2020/12/27 07:51:26;;;;;;;7.75;6.95;;;;;;;-0.03;63.10;100093.31;4398831;32;32818;-91
2020/12/27 07:54:13;;;;;;;17.25;12.25;;;;;;;-0.15;63.80;100079.97;4387472;32;35571;-90
2020/12/27 07:57:21;;;;;;;8.18;7.37;;;;;;;0.09;63.38;100061.34;4408391;32;33973;-91
2020/12/27 08:00:09;;;;;;;12.25;8.18;;;;;;;0.29;63.09;100045.56;4395387;32;33499;-93
2020/12/27 08:03:19;;;;;;;6.97;4.47;;;;;;;0.37;63.24;100048.62;4404117;32;32592;-92
2020/12/27 08:06:07;;;;;;;8.77;5.20;;;;;;;0.16;64.49;100027.00;4391941;32;34701;-92
2020/12/27 08:09:15;;;;;;;4.05;3.75;;;;;;;0.48;63.94;100014.97;4393727;32;33795;-90
2020/12/27 08:11:45;;;;;;;3.00;2.80;;;;;;;0.67;62.78;100023.59;4388772;32;31915;-90
2020/12/27 08:14:56;;;;;;;11.45;5.93;;;;;;;0.59;63.27;100036.22;4387101;32;32652;-91
2020/12/27 08:18:00;;;;;;;4.03;3.25;;;;;;;0.78;62.35;100034.34;4383220;32;35034;-91
2020/12/27 08:20:48;;;;;;;7.68;3.22;;;;;;;0.78;62.38;100036.97;4409942;32;33526;-92
2020/12/27 08:23:30;;;;;;;3.55;3.25;;;;;;;1.04;61.05;100031.25;4387460;32;32469;-95
2020/12/27 08:26:43;;;;;;;6.18;5.75;;;;;;;0.95;61.67;100031.72;4393974;32;33325;-92
2020/12/27 08:29:30;;;;;;;3.55;3.35;;;;;;;0.95;61.53;100029.09;4383836;32;34791;-92
2020/12/27 08:32:42;;;;;;;3.35;3.15;;;;;;;0.82;62.45;100028.88;4349883;32;34687;-90
2020/12/27 08:35:34;;;;;;;1.42;1.37;;;;;;;1.24;60.54;100029.25;4352209;32;32892;-90
2020/12/27 08:38:48;;;;;;;1.42;1.33;;;;;;;1.08;61.00;100020.53;4353787;32;33689;-91
2020/12/27 08:41:39;;;;;;;1.92;1.33;;;;;;;1.26;60.53;100019.56;4330123;33;35007;-93
2020/12/27 08:45:04;;;;;;;0.93;0.93;;;;;;;0.79;61.14;100000.25;4349558;32;34471;-93
2020/12/27 08:48:12;;;;;;;1.05;1.05;;;;;;;0.66;61.16;100014.03;4381729;32;20757;-92
2020/12/27 08:51:02;;;;;;;1.85;1.75;;;;;;;1.09;60.19;99992.53;4386188;32;34204;-92
2020/12/27 08:53:47;;;;;;;1.25;1.17;;;;;;;0.76;60.57;100012.66;4375786;32;34732;-93
2020/12/27 08:56:53;;;;;;;2.30;2.20;;;;;;;0.78;61.63;100003.75;4367132;32;34610;-92
2020/12/27 08:59:41;;;;;;;3.17;2.97;;;;;;;0.89;61.05;99996.22;4384912;32;32041;-91
2020/12/27 09:02:29;;;;;;;1.80;1.70;;;;;;;1.13;60.12;99988.84;4369694;32;33146;-92
2020/12/27 09:05:14;;;;;;;2.03;1.73;;;;;;;0.91;61.09;99969.94;4319202;33;35054;-94
2020/12/27 09:08:01;;;;;;;1.95;1.60;;;;;;;1.24;59.43;99971.59;4399123;32;33478;-94
2020/12/27 09:10:43;;;;;;;0.35;0.35;;;;;;;1.12;60.27;99976.69;4342487;32;32613;-91
2020/12/27 09:13:38;;;;;;;1.27;1.20;;;;;;;1.37;58.76;99984.91;4400753;32;34692;-91
2020/12/27 09:16:36;;;;;;;2.53;2.25;;;;;;;1.37;58.68;99995.38;4333949;32;34377;-92
2020/12/27 09:19:19;;;;;;;2.25;2.12;;;;;;;1.10;58.59;99994.22;4357147;32;33434;-92
2020/12/27 09:22:06;;;;;;;2.05;1.58;;;;;;;1.20;58.97;99980.56;4360480;32;33310;-92
2020/12/27 09:25:11;;;;;;;3.97;2.15;;;;;;;1.38;59.14;99978.72;4318063;33;32298;-92
2020/12/27 09:27:55;;;;;;;1.00;0.85;;;;;;;1.62;57.06;99965.13;4350100;32;34222;-92
2020/12/27 09:30:41;;;;;;;0.82;0.82;;;;;;;1.49;57.65;99964.13;4384975;32;33628;-91
2020/12/27 09:33:23;;;;;;;2.87;1.17;;;;;;;1.58;57.54;99961.00;4340231;32;32577;-91
2020/12/27 09:36:10;;;;;;;1.08;0.93;;;;;;;1.63;58.13;99956.34;4372171;32;32990;-92
2020/12/27 09:38:52;;;;;;;3.83;1.83;;;;;;;1.84;56.85;99946.44;4373900;32;34211;-92
2020/12/27 09:41:42;;;;;;;0.20;0.20;;;;;;;1.83;56.92;99945.59;4357955;32;33560;-93
2020/12/27 09:44:29;;;;;;;3.65;1.23;;;;;;;1.40;57.52;99938.41;4354807;32;32826;-93
2020/12/27 09:47:26;;;;;;;1.95;1.35;;;;;;;1.55;56.75;99941.97;4357832;32;33442;-92
2020/12/27 09:50:14;;;;;;;0.52;0.52;;;;;;;1.61;57.20;99934.59;4370566;32;34710;-92
2020/12/27 09:53:17;;;;;;;1.37;1.10;;;;;;;1.33;58.68;99929.19;4383263;32;20107;-92
2020/12/27 09:56:08;;;;;;;;;;;;;;;1.48;57.80;99912.63;4320366;33;34036;-92
2020/12/27 10:02:11;;;;;;;;;;;;;;;1.48;58.36;99915.25;4360920;32;20170;-96
2020/12/27 10:04:56;;;;;;;0.68;0.68;;;;;;;1.66;58.17;99898.50;4358709;32;33802;-93
2020/12/27 10:08:23;;;;;;;1.20;1.20;;;;;;;1.60;59.79;99883.09;4314595;33;32740;-93
2020/12/27 10:11:09;;;;;;;0.28;0.28;;;;;;;1.62;58.04;99859.41;4327684;33;34375;-93
2020/12/27 10:17:06;;;;;;;1.42;1.33;;;;;;;1.83;57.00;99830.19;4298787;33;20168;-92
2020/12/27 10:19:51;;;;;;;1.08;1.08;;;;;;;1.82;57.49;99825.87;4311693;33;32987;-94
2020/12/27 10:22:55;;;;;;;2.62;2.42;;;;;;;1.68;58.42;99822.38;926700;27;21876;31
2020/12/27 10:25:56;;;;;;;4.47;2.42;;;;;;;2.04;57.39;99828.94;4284061;33;20168;-93
2020/12/27 10:28:42;;;;;;;1.27;1.25;;;;;;;2.36;56.66;99824.38;4307415;33;34439;-92
2020/12/27 10:31:24;;;;;;;0.75;0.75;;;;;;;2.52;55.78;99822.53;4334440;33;33141;-92
2020/12/27 10:34:47;;;;;;;0.28;0.28;;;;;;;2.35;55.97;99809.56;4305838;33;32965;-92
2020/12/27 10:37:36;;;;;;;4.80;2.37;;;;;;;1.99;57.18;99796.03;4340849;33;34547;-91
2020/12/27 10:40:56;;;;;;;2.85;1.50;;;;;;;2.07;58.65;99806.91;4366792;32;20130;-91
2020/12/27 10:43:51;;;;;;;0.43;0.43;;;;;;;2.14;57.58;99803.81;4366520;32;33080;-92
2020/12/27 10:47:01;;;;;;;2.65;2.50;;;;;;;1.62;58.38;99801.75;4399020;32;32960;-93
2020/12/27 10:49:49;;;;;;;1.00;1.00;;;;;;;2.07;57.14;99799.88;4385176;32;34200;-92
2020/12/27 10:52:54;;;;;;;0.60;0.60;;;;;;;2.06;57.25;99803.44;4380839;32;33701;-91
2020/12/27 10:55:47;;;;;;;6.00;3.37;;;;;;;1.89;57.96;99785.22;4374365;32;33117;-91
2020/12/27 10:58:35;;;;;;;1.02;1.02;;;;;;;1.95;57.62;99787.50;4345466;32;33377;-91
2020/12/27 11:01:50;;;;;;;0.57;0.57;;;;;;;2.14;57.28;99774.09;4359637;32;33940;-92
2020/12/27 11:04:43;;;;;;;9.00;3.17;;;;;;;1.90;58.19;99771.16;4334276;33;34015;-94
2020/12/27 11:08:04;;;;;;;5.95;2.20;;;;;;;1.86;58.28;99751.31;4346807;32;20195;-93
2020/12/27 11:29:49;;;;;;;0.75;0.75;;;;;;;2.77;57.53;99702.72;4343261;33;33373;-93
2020/12/27 11:32:59;;;;;;;1.15;1.15;;;;;;;2.59;56.11;99692.50;4329696;32;32661;-91
2020/12/27 11:35:43;;;;;;;1.30;0.98;;;;;;;2.14;58.00;99679.63;4351344;32;33660;-93
2020/12/27 11:38:31;;;;;;;7.90;2.58;;;;;;;2.18;58.11;99683.78;4328426;33;33141;-93
2020/12/27 11:42:06;;;;;;;2.40;1.95;;;;;;;2.20;58.29;99674.03;2839797;27;20395;-92
2020/12/27 11:45:04;;;;;;;1.85;1.75;;;;;;;1.91;59.52;99659.25;4315443;33;33218;-95
2020/12/27 11:47:49;;;;;;;1.65;1.60;;;;;;;2.00;59.31;99642.94;4312903;33;33578;-95
2020/12/27 11:50:48;;;;;;;0.65;0.65;;;;;;;1.95;60.17;99634.50;4321533;33;20127;-93
2020/12/27 11:53:44;;;;;;;1.83;1.73;;;;;;;1.99;60.20;99628.13;4342405;33;20120;-92
2020/12/27 11:56:27;;;;;;;0.98;0.98;;;;;;;2.00;60.56;99630.69;4296142;33;32390;-94
2020/12/27 11:59:27;;;;;;;1.23;1.23;;;;;;;2.25;60.05;99625.56;4386681;32;20075;-93
2020/12/27 12:02:25;;;;;;;0.98;0.98;;;;;;;2.02;61.31;99615.69;4364986;32;20106;-92
2020/12/27 12:05:07;;;;;;;1.45;1.30;;;;;;;2.29;60.25;99594.72;4330560;33;34592;-95
2020/12/27 12:07:54;;;;;;;1.48;1.37;;;;;;;2.06;61.33;99597.97;4371260;32;33130;-92
2020/12/27 12:10:41;;;;;;;1.30;1.20;;;;;;;2.14;61.34;99599.16;4378824;32;33418;-92
2020/12/27 12:13:25;;;;;;;1.95;0.80;;;;;;;2.06;61.94;99588.28;4390374;32;35479;-94
2020/12/27 12:16:09;;;;;;;3.95;2.35;;;;;;;1.81;62.93;99590.75;4386682;32;34818;-92
2020/12/27 12:18:53;;;;;;;0.60;0.60;;;;;;;1.95;62.83;99580.25;4370285;32;32543;-93
2020/12/27 12:21:35;;;;;;;4.32;2.67;;;;;;;2.12;62.08;99558.19;4361803;32;33679;-92
2020/12/27 12:24:32;;;;;;;8.43;3.25;;;;;;;2.09;62.29;99563.66;4376217;32;34741;-92
2020/12/27 12:27:18;;;;;;;2.25;2.15;;;;;;;2.41;61.37;99557.16;4410230;32;34244;-93
2020/12/27 12:30:02;;;;;;;2.95;2.75;;;;;;;2.18;62.25;99552.56;4378503;32;34179;-92
2020/12/27 12:32:50;;;;;;;6.37;2.60;;;;;;;2.51;61.31;99539.88;4385803;32;34197;-91
2020/12/27 12:35:43;;;;;;;3.25;1.70;;;;;;;2.53;60.59;99523.09;4364917;32;36383;-94
2020/12/27 12:38:40;;;;;;;1.85;1.75;;;;;;;2.61;60.64;99515.53;4353441;32;33838;-92
2020/12/27 12:41:27;;;;;;;1.37;1.27;;;;;;;2.66;60.21;99507.38;4401686;32;32881;-91
2020/12/27 12:44:13;;;;;;;2.20;1.50;;;;;;;2.62;60.80;99501.47;4357110;32;34171;-92
2020/12/27 12:47:03;;;;;;;3.58;2.22;;;;;;;2.58;61.22;99505.25;4366379;32;35096;-91
2020/12/27 12:49:49;;;;;;;1.20;1.17;;;;;;;2.80;60.38;99502.88;4368703;32;34446;-92
2020/12/27 12:52:32;;;;;;;2.70;2.25;;;;;;;2.85;60.39;99493.72;4359190;32;34017;-87
2020/12/27 12:55:05;;;;;;;1.75;1.65;;;;;;;2.79;60.82;99495.94;4374284;32;33086;-85
2020/12/27 13:01:25;;;;;;;6.62;3.22;;;;;;;3.06;59.45;99468.63;4330945;33;35141;-85
2020/12/27 13:03:53;;;;;;;2.42;1.95;;;;;;;2.94;60.06;99466.84;4339543;33;33627;-85